Hovedside
METAR-TAF:

METAR-TAF

Lufthavner :

Kalmar lufthavn

Kalmar, Sverige

breddegrad: 56-44N, lengdegrad: 016-18E, høyde over havet: 16 m

Gjeldene værobservasjon

Denne rapporten ble laget for 35 minutter siden, klokken 10:20 UTC
Vind 18 kt fra Sør
Temperatur 19°C
Luftfuktighet 83%
Trykk 1001 hPa
Sikt 10 km eller mer
ingen skyer under 1500 m og ingen bygeskyer

METAR: ESMQ 211020Z 17018KT CAVOK 19/16 Q1001

Tid: 12:55 (10:55 UTC)

Varsel

Denne rapporten ble laget for 2 timer og 25 minutter siden, klokken 08:30 UTC
Varsel gyldig fra 21. klokken 09 UTC til 21. klokken 18 UTC
Vind 15 kt fra Sør
Sikt 10 km eller mer
ingen skyer under 1500 m og ingen bygeskyer
Blir
fra 21. klokken 10 UTC til 21. klokken 12 UTC
Vind 18 kt fra Sør med vindkast opp mot 35 kt
Blir
fra 21. klokken 16 UTC til 21. klokken 18 UTC
Vind 20 kt fra Vest med vindkast opp mot 40 kt

TAF: ESMQ 210830Z 2109/2118 18015KT CAVOK BECMG 2110/2112 18018G35KT BECMG 2116/2118 26020G40KT

Værobservasjoner og værvarsel for over 4000 flyplasser (METAR- og TAF-rapporter).

Tilgjengelige stasjoner er representert av de røde og gule prikkene på kartet.

Hold musepekeren over prikken for å se navnet på stasjonen.

Klikk så for å se værobservasjoner og -varsler.

For å forandre kartet kan du klikke på den grønne knappen med svart kryss for å zoome inn, på den grønne knappen med strek for å zoome ut, eller på de grønne pilene for å se tilstøtende kart.


METAR-TAF: